createdAt,value
2022-09-09T00:01:51.003Z,100948.41
2022-09-09T00:04:28.332Z,100946.72
2022-09-09T00:07:13.879Z,100929.06
2022-09-09T00:09:50.417Z,100920.44
2022-09-09T00:12:25.973Z,100913.06
2022-09-09T00:14:57.583Z,100931.25
2022-09-09T00:17:31.716Z,100931.88
2022-09-09T00:20:21.850Z,100923.28
2022-09-09T00:23:02.207Z,100916.66
2022-09-09T00:25:40.724Z,100929.22
2022-09-09T00:28:23.645Z,100910.06
2022-09-09T00:30:51.708Z,100912.94
2022-09-09T00:33:25.555Z,100908.97
2022-09-09T00:35:55.697Z,100925.56
2022-09-09T00:38:33.858Z,100921.06
2022-09-09T00:41:11.709Z,100911.75
2022-09-09T00:43:41.282Z,100918.34
2022-09-09T00:46:29.421Z,100926.81
2022-09-09T00:49:05.909Z,100901.47
2022-09-09T00:51:47.868Z,100914.56
2022-09-09T00:54:33.111Z,100933.31
2022-09-09T00:57:24.292Z,100931.63
2022-09-09T01:00:22.116Z,100930.06
2022-09-09T01:03:09.816Z,100937.09
2022-09-09T01:05:59.663Z,100934.56
2022-09-09T01:08:41.958Z,100934.28
2022-09-09T01:11:16.827Z,100916.38
2022-09-09T01:13:47.728Z,100925.69
2022-09-09T01:16:15.641Z,100915.16
2022-09-09T01:18:47.026Z,100921.06
2022-09-09T01:21:41.259Z,100890.47
2022-09-09T01:24:32.262Z,100918.94
2022-09-09T01:27:04.856Z,100903.25
2022-09-09T01:29:31.502Z,100907.88
2022-09-09T01:32:03.797Z,100925.72
2022-09-09T01:34:34.996Z,100926.69
2022-09-09T01:37:08.381Z,100916.28
2022-09-09T01:39:37.202Z,100915.56
2022-09-09T01:42:07.405Z,100910.47
2022-09-09T01:44:35.346Z,100902.00
2022-09-09T01:47:01.816Z,100914.25
2022-09-09T01:49:28.624Z,100879.91
2022-09-09T01:51:57.555Z,100908.00
2022-09-09T01:54:28.821Z,100913.47
2022-09-09T01:56:56.481Z,100897.13
2022-09-09T01:59:41.387Z,100901.00
2022-09-09T02:02:18.497Z,100901.75
2022-09-09T02:04:49.823Z,100899.94
2022-09-09T02:07:43.096Z,100896.31
2022-09-09T02:10:21.816Z,100889.78
2022-09-09T02:12:55.841Z,100893.44
2022-09-09T02:15:30.640Z,100899.75
2022-09-09T02:17:59.489Z,100897.00
2022-09-09T02:20:30.526Z,100900.13
2022-09-09T02:23:01.789Z,100892.25
2022-09-09T02:25:30.741Z,100869.41
2022-09-09T02:28:01.134Z,100898.06
2022-09-09T02:30:31.915Z,100880.41
2022-09-09T02:33:02.416Z,100883.91
2022-09-09T02:35:31.610Z,100888.59
2022-09-09T02:38:02.799Z,100888.59
2022-09-09T02:40:29.266Z,100897.81
2022-09-09T02:42:56.058Z,100886.66
2022-09-09T02:45:32.693Z,100889.34
2022-09-09T02:48:05.834Z,100900.47
2022-09-09T02:50:35.959Z,100908.22
2022-09-09T02:53:18.882Z,100882.09
2022-09-09T02:55:48.833Z,100897.59
2022-09-09T02:58:19.165Z,100889.59
2022-09-09T03:00:53.552Z,100895.63
2022-09-09T03:03:26.826Z,100898.91
2022-09-09T03:05:53.418Z,100892.00
2022-09-09T03:08:19.900Z,100888.75
2022-09-09T03:10:47.614Z,100889.47
2022-09-09T03:13:16.273Z,100857.16
2022-09-09T03:15:43.468Z,100857.97
2022-09-09T03:18:10.518Z,100873.56
2022-09-09T03:20:39.452Z,100861.91
2022-09-09T03:23:06.122Z,100889.16
2022-09-09T03:25:33.004Z,100882.53
2022-09-09T03:27:59.763Z,100871.50
2022-09-09T03:30:28.707Z,100848.72
2022-09-09T03:32:56.167Z,100863.00
2022-09-09T03:35:22.789Z,100882.91
2022-09-09T03:37:49.859Z,100873.94
2022-09-09T03:40:16.620Z,100881.66
2022-09-09T03:42:44.190Z,100866.53
2022-09-09T03:45:13.221Z,100877.81
2022-09-09T03:47:39.753Z,100881.34
2022-09-09T03:50:11.350Z,100874.66
2022-09-09T03:52:41.935Z,100867.88
2022-09-09T03:55:09.083Z,100876.72
2022-09-09T03:57:36.763Z,100868.97
2022-09-09T04:00:06.046Z,100873.22
2022-09-09T04:02:32.972Z,100871.88
2022-09-09T04:05:00.602Z,100866.31
2022-09-09T04:07:28.199Z,100862.03
2022-09-09T04:09:55.781Z,100849.34
2022-09-09T04:12:23.463Z,100860.97
2022-09-09T04:14:50.228Z,100848.38
2022-09-09T04:17:16.896Z,100834.22
2022-09-09T04:19:44.429Z,100839.44
2022-09-09T04:22:11.192Z,100830.00
2022-09-09T04:24:38.305Z,100858.31
2022-09-09T04:27:04.988Z,100862.91
2022-09-09T04:29:31.533Z,100843.06
2022-09-09T04:31:58.054Z,100859.78
2022-09-09T04:34:24.645Z,100855.56
2022-09-09T04:36:52.767Z,100851.44
2022-09-09T04:39:22.156Z,100852.28
2022-09-09T04:41:51.963Z,100848.91
2022-09-09T04:44:20.551Z,100823.38
2022-09-09T04:46:48.991Z,100838.38
2022-09-09T04:49:19.003Z,100819.88
2022-09-09T04:51:46.867Z,100830.88
2022-09-09T04:54:13.733Z,100814.66
2022-09-09T04:56:41.563Z,100814.66
2022-09-09T04:59:08.220Z,100806.56
2022-09-09T05:01:35.118Z,100815.63
2022-09-09T05:04:02.302Z,100828.81
2022-09-09T05:06:30.436Z,100833.66
2022-09-09T05:08:58.176Z,100835.22
2022-09-09T05:11:32.520Z,100814.53
2022-09-09T05:14:06.025Z,100839.69
2022-09-09T05:16:33.520Z,100818.03
2022-09-09T05:19:00.047Z,100833.41
2022-09-09T05:21:27.376Z,100840.69
2022-09-09T05:23:54.322Z,100847.09
2022-09-09T05:26:23.756Z,100848.31
2022-09-09T05:28:50.558Z,100853.75
2022-09-09T05:31:20.898Z,100850.34
2022-09-09T05:33:50.215Z,100842.13
2022-09-09T05:36:22.518Z,100833.53
2022-09-09T05:38:54.652Z,100830.63
2022-09-09T05:41:21.502Z,100825.03
2022-09-09T05:43:49.783Z,100853.47
2022-09-09T05:46:21.696Z,100855.31
2022-09-09T05:48:52.961Z,100833.75
2022-09-09T05:51:27.545Z,100823.22
2022-09-09T05:53:56.324Z,100812.09
2022-09-09T05:56:26.207Z,100835.28
2022-09-09T05:58:54.923Z,100847.88
2022-09-09T06:01:24.684Z,100826.06
2022-09-09T06:03:54.970Z,100840.25
2022-09-09T06:06:29.619Z,100840.72
2022-09-09T06:08:59.061Z,100839.66
2022-09-09T06:11:28.372Z,100863.50
2022-09-09T06:13:55.558Z,100847.00
2022-09-09T06:16:25.923Z,100862.75
2022-09-09T06:18:55.229Z,100858.78
2022-09-09T06:21:22.935Z,100844.06
2022-09-09T06:23:49.943Z,100837.38
2022-09-09T06:26:20.013Z,100853.94
2022-09-09T06:28:52.922Z,100798.75
2022-09-09T06:31:28.176Z,100836.63
2022-09-09T06:33:57.205Z,100837.91
2022-09-09T06:36:32.153Z,100836.84
2022-09-09T06:39:00.032Z,100830.13
2022-09-09T06:41:29.867Z,100816.78
2022-09-09T06:43:57.089Z,100835.06
2022-09-09T06:46:29.097Z,100796.78
2022-09-09T06:48:57.021Z,100823.56
2022-09-09T06:51:25.049Z,100826.41
2022-09-09T06:53:54.441Z,100830.25
2022-09-09T06:59:29.076Z,100833.00
2022-09-09T07:01:56.514Z,100834.69
2022-09-09T07:04:23.081Z,100837.66
2022-09-09T07:06:53.459Z,100817.38
2022-09-09T07:09:20.169Z,100820.41
2022-09-09T07:11:52.533Z,100835.09
2022-09-09T07:14:20.180Z,100817.13
2022-09-09T07:16:47.454Z,100828.75
2022-09-09T07:19:15.561Z,100828.13
2022-09-09T07:21:42.898Z,100824.22
2022-09-09T07:24:11.276Z,100810.19
2022-09-09T07:26:40.020Z,100802.16
2022-09-09T07:29:07.357Z,100833.56
2022-09-09T07:31:37.239Z,100829.75
2022-09-09T07:34:05.272Z,100821.59
2022-09-09T07:36:33.789Z,100826.81
2022-09-09T07:39:03.009Z,100833.34
2022-09-09T07:41:35.139Z,100832.50
2022-09-09T07:44:07.471Z,100802.66
2022-09-09T07:46:35.134Z,100835.03
2022-09-09T07:49:03.167Z,100826.88
2022-09-09T07:51:30.908Z,100838.69
2022-09-09T07:54:00.888Z,100833.47
2022-09-09T07:56:29.012Z,100837.13
2022-09-09T07:58:57.378Z,100840.53
2022-09-09T08:01:26.510Z,100847.28
2022-09-09T08:03:57.258Z,100820.38
2022-09-09T08:06:24.648Z,100846.16
2022-09-09T08:08:52.583Z,100831.22
2022-09-09T08:11:18.953Z,100852.06
2022-09-09T08:13:48.061Z,100849.81
2022-09-09T08:16:19.648Z,100843.34
2022-09-09T08:18:46.146Z,100847.31
2022-09-09T08:21:16.234Z,100826.44
2022-09-09T08:23:44.080Z,100829.13
2022-09-09T08:26:23.166Z,100843.50
2022-09-09T08:28:52.528Z,100841.53
2022-09-09T08:31:25.376Z,100847.44
2022-09-09T08:33:53.283Z,100848.13
2022-09-09T08:36:22.811Z,100800.25
2022-09-09T08:38:55.060Z,100844.91
2022-09-09T08:41:53.708Z,100847.88
2022-09-09T08:44:56.397Z,100843.06
2022-09-09T08:47:35.981Z,100805.03
2022-09-09T08:50:20.750Z,100845.47
2022-09-09T08:53:05.197Z,100854.22
2022-09-09T08:55:50.808Z,100858.56
2022-09-09T08:58:23.136Z,100856.00
2022-09-09T09:01:03.364Z,100853.47
2022-09-09T09:03:38.844Z,100856.00
2022-09-09T09:06:29.781Z,100852.50
2022-09-09T09:09:19.053Z,100862.63
2022-09-09T09:11:54.658Z,100865.44
2022-09-09T09:14:24.397Z,100863.47
2022-09-09T09:16:58.674Z,100826.00
2022-09-09T09:19:27.301Z,100824.47
2022-09-09T09:22:08.233Z,100876.41
2022-09-09T09:24:55.010Z,100856.16
2022-09-09T09:27:50.459Z,100872.91
2022-09-09T09:30:29.931Z,100869.41
2022-09-09T09:32:59.295Z,100872.34
2022-09-09T09:35:26.199Z,100870.66
2022-09-09T09:40:56.821Z,100869.38
2022-09-09T09:43:29.248Z,100874.25
2022-09-09T09:46:16.613Z,100866.66
2022-09-09T09:48:43.529Z,100868.13
2022-09-09T09:51:17.464Z,100864.75
2022-09-09T09:53:44.177Z,100872.66
2022-09-09T09:56:13.681Z,100869.28
2022-09-09T09:58:46.620Z,100870.25
2022-09-09T10:01:34.241Z,100879.56
2022-09-09T10:04:21.053Z,100866.59
2022-09-09T10:06:47.765Z,100866.44
2022-09-09T10:09:26.889Z,100867.28
2022-09-09T10:12:20.745Z,100866.28
2022-09-09T10:15:30.917Z,100868.22
2022-09-09T10:18:16.460Z,100866.53
2022-09-09T10:21:01.294Z,100864.44
2022-09-09T10:23:59.358Z,100867.69
2022-09-09T10:26:50.747Z,100866.41
2022-09-09T10:29:35.820Z,100871.19
2022-09-09T10:32:26.110Z,100874.72
2022-09-09T10:35:40.168Z,100867.09
2022-09-09T10:38:25.495Z,100862.66
2022-09-09T10:40:56.334Z,100860.81
2022-09-09T10:43:44.606Z,100864.00
2022-09-09T10:46:33.418Z,100857.75
2022-09-09T10:49:39.100Z,100857.28
2022-09-09T10:52:19.055Z,100847.47
2022-09-09T10:55:01.159Z,100850.72
2022-09-09T10:57:35.089Z,100848.28
2022-09-09T11:00:26.829Z,100848.19
2022-09-09T11:02:57.176Z,100857.88
2022-09-09T11:05:46.509Z,100856.03
2022-09-09T11:08:30.747Z,100857.81
2022-09-09T11:11:00.986Z,100848.63
2022-09-09T11:13:36.638Z,100845.09
2022-09-09T11:16:21.850Z,100847.44
2022-09-09T11:18:48.664Z,100854.91
2022-09-09T11:21:45.705Z,100859.06
2022-09-09T11:24:19.062Z,100834.00
2022-09-09T11:26:58.894Z,100829.25
2022-09-09T11:29:45.055Z,100846.00
2022-09-09T11:32:11.373Z,100849.94
2022-09-09T11:35:16.228Z,100839.50
2022-09-09T11:38:03.782Z,100846.66
2022-09-09T11:40:32.012Z,100848.53
2022-09-09T11:43:10.479Z,100843.31
2022-09-09T11:45:37.669Z,100836.50
2022-09-09T11:48:06.923Z,100838.13
2022-09-09T11:50:36.826Z,100837.56
2022-09-09T11:53:15.209Z,100832.16
2022-09-09T11:55:41.681Z,100813.88
2022-09-09T11:58:11.861Z,100841.56
2022-09-09T12:00:41.255Z,100842.56
2022-09-09T12:03:46.021Z,100839.97
2022-09-09T12:06:21.050Z,100829.72
2022-09-09T12:08:58.624Z,100834.75
2022-09-09T12:11:30.634Z,100826.78
2022-09-09T12:14:01.721Z,100830.00
2022-09-09T12:16:31.930Z,100833.69
2022-09-09T12:19:10.749Z,100824.31
2022-09-09T12:21:38.569Z,100827.84
2022-09-09T12:24:09.964Z,100835.34
2022-09-09T12:27:01.597Z,100816.41
2022-09-09T12:29:45.873Z,100850.69
2022-09-09T12:32:26.409Z,100854.94
2022-09-09T12:35:04.422Z,100839.97
2022-09-09T12:37:37.057Z,100838.25
2022-09-09T12:40:28.402Z,100813.53
2022-09-09T12:42:56.261Z,100837.69
2022-09-09T12:45:29.250Z,100805.19
2022-09-09T12:48:08.867Z,100829.94
2022-09-09T12:51:07.520Z,100830.63
2022-09-09T12:53:37.106Z,100826.56
2022-09-09T12:56:09.586Z,100821.53
2022-09-09T12:58:38.589Z,100820.69
2022-09-09T13:01:06.977Z,100820.28
2022-09-09T13:03:42.377Z,100842.75
2022-09-09T13:06:45.724Z,100824.28
2022-09-09T13:09:13.379Z,100839.06
2022-09-09T13:11:50.373Z,100836.84
2022-09-09T13:14:40.817Z,100838.13
2022-09-09T13:17:08.410Z,100841.38
2022-09-09T13:19:41.747Z,100829.69
2022-09-09T13:22:21.545Z,100838.44
2022-09-09T13:24:48.277Z,100824.88
2022-09-09T13:27:27.277Z,100829.25
2022-09-09T13:29:58.526Z,100831.34
2022-09-09T13:32:31.242Z,100829.50
2022-09-09T13:35:00.117Z,100798.13
2022-09-09T13:37:37.161Z,100835.31
2022-09-09T13:40:07.147Z,100839.03
2022-09-09T13:42:46.887Z,100818.78
2022-09-09T13:45:22.985Z,100822.47
2022-09-09T13:47:53.633Z,100799.09
2022-09-09T13:50:28.884Z,100820.25
2022-09-09T13:52:59.199Z,100819.28
2022-09-09T13:55:30.961Z,100829.13
2022-09-09T13:58:01.623Z,100835.47
2022-09-09T14:00:31.612Z,100838.56
2022-09-09T14:02:58.732Z,100833.63
2022-09-09T14:05:26.719Z,100834.03
2022-09-09T14:07:55.337Z,100821.53
2022-09-09T14:10:23.374Z,100843.09
2022-09-09T14:12:49.911Z,100828.44
2022-09-09T14:15:17.057Z,100828.84
2022-09-09T14:17:43.657Z,100828.56
2022-09-09T14:20:12.720Z,100840.25
2022-09-09T14:22:40.305Z,100829.13
2022-09-09T14:25:07.375Z,100821.50
2022-09-09T14:27:33.844Z,100823.75
2022-09-09T14:30:01.722Z,100826.38
2022-09-09T14:32:31.177Z,100827.78
2022-09-09T14:34:57.560Z,100810.16
2022-09-09T14:37:24.920Z,100823.00
2022-09-09T14:39:51.655Z,100820.63
2022-09-09T14:42:18.420Z,100833.44
2022-09-09T14:44:45.215Z,100814.00
2022-09-09T14:47:11.821Z,100825.41
2022-09-09T14:49:40.601Z,100828.09
2022-09-09T14:52:10.206Z,100803.59
2022-09-09T14:54:36.702Z,100815.56
2022-09-09T14:57:03.241Z,100826.25
2022-09-09T14:59:29.788Z,100814.97
2022-09-09T15:01:56.286Z,100819.03
2022-09-09T15:04:22.937Z,100812.94
2022-09-09T15:06:50.836Z,100828.50
2022-09-09T15:09:17.271Z,100829.47
2022-09-09T15:11:45.210Z,100815.25
2022-09-09T15:14:12.975Z,100829.28
2022-09-09T15:16:40.634Z,100822.38
2022-09-09T15:19:07.081Z,100842.16
2022-09-09T15:21:36.247Z,100840.44
2022-09-09T15:24:03.701Z,100836.84
2022-09-09T15:26:31.035Z,100840.06
2022-09-09T15:29:00.031Z,100833.63
2022-09-09T15:31:29.398Z,100844.59
2022-09-09T15:34:02.009Z,100849.09
2022-09-09T15:36:31.281Z,100838.69
2022-09-09T15:38:57.891Z,100845.34
2022-09-09T15:41:28.098Z,100841.81
2022-09-09T15:43:57.595Z,100857.59
2022-09-09T15:46:34.268Z,100848.34
2022-09-09T15:49:08.096Z,100857.81
2022-09-09T15:51:43.282Z,100844.44
2022-09-09T15:54:18.596Z,100853.06
2022-09-09T15:56:47.368Z,100848.25
2022-09-09T15:59:14.638Z,100865.44
2022-09-09T16:01:41.857Z,100867.28
2022-09-09T16:04:11.287Z,100870.41
2022-09-09T16:06:37.842Z,100845.03
2022-09-09T16:09:06.883Z,100857.47
2022-09-09T16:11:38.983Z,100845.47
2022-09-09T16:14:07.500Z,100875.22
2022-09-09T16:16:36.052Z,100876.47
2022-09-09T16:19:12.787Z,100862.38
2022-09-09T16:21:47.738Z,100865.31
2022-09-09T16:24:19.037Z,100867.84
2022-09-09T16:26:50.076Z,100869.13
2022-09-09T16:29:18.844Z,100856.88
2022-09-09T16:31:47.619Z,100861.25
2022-09-09T16:34:15.518Z,100864.06
2022-09-09T16:36:44.078Z,100863.22
2022-09-09T16:39:19.567Z,100858.28
2022-09-09T16:41:49.014Z,100857.84
2022-09-09T16:44:19.391Z,100862.81
2022-09-09T16:46:49.847Z,100867.88
2022-09-09T16:49:17.116Z,100874.22
2022-09-09T16:51:55.003Z,100875.63
2022-09-09T16:54:22.908Z,100880.28
2022-09-09T16:56:49.631Z,100864.22
2022-09-09T16:59:18.831Z,100877.47
2022-09-09T17:01:47.397Z,100878.88
2022-09-09T17:04:24.732Z,100893.53
2022-09-09T17:06:53.743Z,100889.28
2022-09-09T17:09:21.494Z,100876.50
2022-09-09T17:11:51.949Z,100872.22
2022-09-09T17:14:20.794Z,100894.22
2022-09-09T17:16:47.581Z,100894.22
2022-09-09T17:19:14.622Z,100898.59
2022-09-09T17:22:00.122Z,100899.59
2022-09-09T17:24:28.339Z,100901.81
2022-09-09T17:26:57.354Z,100896.19
2022-09-09T17:29:25.825Z,100919.72
2022-09-09T17:31:52.375Z,100903.25
2022-09-09T17:34:26.726Z,100910.97
2022-09-09T17:36:53.829Z,100913.66
2022-09-09T17:39:20.478Z,100917.47
2022-09-09T17:41:46.950Z,100906.56
2022-09-09T17:44:13.535Z,100920.84
2022-09-09T17:46:42.331Z,100922.41
2022-09-09T17:49:12.843Z,100924.66
2022-09-09T17:51:42.900Z,100910.84
2022-09-09T17:54:13.300Z,100929.03
2022-09-09T17:56:41.754Z,100920.13
2022-09-09T17:59:10.260Z,100922.41
2022-09-09T18:01:39.837Z,100926.91
2022-09-09T18:04:09.424Z,100900.81
2022-09-09T18:06:42.084Z,100916.19
2022-09-09T18:09:14.543Z,100926.63
2022-09-09T18:11:45.415Z,100916.00
2022-09-09T18:14:44.037Z,100933.34
2022-09-09T18:17:11.168Z,100919.53
2022-09-09T18:19:37.571Z,100922.06
2022-09-09T18:22:05.444Z,100937.59
2022-09-09T18:24:32.883Z,100939.56
2022-09-09T18:26:59.613Z,100940.94
2022-09-09T18:29:26.493Z,100935.88
2022-09-09T18:31:57.674Z,100944.59
2022-09-09T18:34:29.597Z,100947.53
2022-09-09T18:36:57.646Z,100951.75
2022-09-09T18:39:29.047Z,100967.66
2022-09-09T18:42:01.486Z,100965.25
2022-09-09T18:44:32.770Z,100971.75
2022-09-09T18:46:59.611Z,100977.22
2022-09-09T18:49:28.780Z,100967.06
2022-09-09T18:51:56.425Z,100964.25
2022-09-09T18:54:26.759Z,100977.09
2022-09-09T18:56:53.258Z,100967.91
2022-09-09T18:59:23.934Z,100978.22
2022-09-09T19:01:52.821Z,100976.50
2022-09-09T19:04:22.531Z,100980.44
2022-09-09T19:06:57.645Z,100982.38
2022-09-09T19:09:30.955Z,100977.16
2022-09-09T19:12:00.002Z,100975.59
2022-09-09T19:14:26.589Z,100971.19
2022-09-09T19:16:57.703Z,100981.22
2022-09-09T19:19:29.461Z,100994.72
2022-09-09T19:21:59.832Z,101002.31
2022-09-09T19:24:30.214Z,101001.19
2022-09-09T19:27:02.017Z,100977.06
2022-09-09T19:29:32.431Z,100981.59
2022-09-09T19:32:36.788Z,100979.44
2022-09-09T19:34:50.566Z,100986.09
2022-09-09T19:37:18.619Z,100996.78
2022-09-09T19:39:47.309Z,101013.84
2022-09-09T19:42:14.516Z,101010.59
2022-09-09T19:44:41.416Z,101012.44
2022-09-09T19:47:08.882Z,101014.97
2022-09-09T19:49:37.070Z,101024.56
2022-09-09T19:52:07.411Z,101014.66
2022-09-09T19:54:33.931Z,101023.41
2022-09-09T19:57:03.832Z,101013.09
2022-09-09T19:59:30.439Z,101024.38
2022-09-09T20:01:58.360Z,101018.44
2022-09-09T20:04:28.973Z,101022.94
2022-09-09T20:06:55.631Z,101013.44
2022-09-09T20:09:22.281Z,101028.81
2022-09-09T20:11:50.395Z,101020.63
2022-09-09T20:14:20.125Z,101028.50
2022-09-09T20:16:46.783Z,101016.38
2022-09-09T20:19:16.105Z,101018.22
2022-09-09T20:21:47.793Z,101022.97
2022-09-09T20:24:20.289Z,101020.09
2022-09-09T20:26:50.164Z,101019.72
2022-09-09T20:29:21.288Z,101027.41
2022-09-09T20:31:50.973Z,101038.09
2022-09-09T20:34:22.120Z,101034.00
2022-09-09T20:36:51.541Z,101034.97
2022-09-09T20:39:20.518Z,101029.88
2022-09-09T20:41:47.563Z,101043.25
2022-09-09T20:44:17.167Z,101004.22
2022-09-09T20:46:50.502Z,101009.28
2022-09-09T20:49:22.116Z,101020.75
2022-09-09T20:51:50.432Z,101038.75
2022-09-09T20:54:27.462Z,101044.81
2022-09-09T20:56:56.504Z,101038.63
2022-09-09T20:59:30.944Z,101034.00
2022-09-09T21:01:57.945Z,101026.25
2022-09-09T21:04:26.024Z,101041.66
2022-09-09T21:06:52.668Z,101023.97
2022-09-09T21:09:22.516Z,101032.16
2022-09-09T21:11:52.312Z,101030.72
2022-09-09T21:14:20.087Z,101043.25
2022-09-09T21:16:48.028Z,101035.81
2022-09-09T21:19:14.390Z,101044.19
2022-09-09T21:21:40.744Z,101046.25
2022-09-09T21:24:07.256Z,101035.34
2022-09-09T21:26:33.832Z,101034.50
2022-09-09T21:29:00.403Z,101034.50
2022-09-09T21:31:28.238Z,101030.88
2022-09-09T21:33:58.311Z,101039.59
2022-09-09T21:36:31.313Z,101036.53
2022-09-09T21:38:58.986Z,101047.34
2022-09-09T21:41:25.778Z,101030.72
2022-09-09T21:43:54.426Z,101040.06
2022-09-09T21:46:21.481Z,101033.66
2022-09-09T21:48:47.965Z,101040.56
2022-09-09T21:51:20.664Z,101044.09
2022-09-09T21:53:47.186Z,101036.91
2022-09-09T21:56:16.462Z,101043.97
2022-09-09T21:58:45.235Z,101028.72
2022-09-09T22:01:14.673Z,101034.25
2022-09-09T22:03:42.676Z,101040.81
2022-09-09T22:06:11.327Z,101058.88
2022-09-09T22:08:38.026Z,101051.84
2022-09-09T22:11:11.155Z,101047.59
2022-09-09T22:13:39.856Z,101050.41
2022-09-09T22:16:09.275Z,101055.63
2022-09-09T22:18:36.764Z,101051.66
2022-09-09T22:21:15.836Z,101049.56
2022-09-09T22:23:42.484Z,101026.22
2022-09-09T22:26:10.149Z,101059.53
2022-09-09T22:28:38.406Z,101056.84
2022-09-09T22:31:05.991Z,101048.25
2022-09-09T22:33:32.732Z,101053.94
2022-09-09T22:36:00.077Z,101017.63
2022-09-09T22:38:27.238Z,101054.31
2022-09-09T22:40:56.842Z,101049.09
2022-09-09T22:43:23.482Z,101022.84
2022-09-09T22:45:51.193Z,101050.66
2022-09-09T22:48:17.846Z,101039.66
2022-09-09T22:50:44.948Z,101036.00
2022-09-09T22:53:14.918Z,101048.38
2022-09-09T22:55:41.848Z,101036.38
2022-09-09T22:58:09.055Z,101020.53
2022-09-09T23:00:35.575Z,101010.50
2022-09-09T23:03:02.230Z,101049.03
2022-09-09T23:05:28.747Z,101043.94
2022-09-09T23:07:58.515Z,101038.72
2022-09-09T23:10:27.066Z,101042.38
2022-09-09T23:12:54.102Z,101045.91
2022-09-09T23:15:21.036Z,101059.44
2022-09-09T23:17:52.084Z,101063.56
2022-09-09T23:20:22.762Z,101056.66
2022-09-09T23:22:52.032Z,101053.13
2022-09-09T23:25:26.020Z,101024.66
2022-09-09T23:27:54.065Z,101062.06
2022-09-09T23:30:21.561Z,101060.13
2022-09-09T23:32:57.924Z,101058.53
2022-09-09T23:35:24.686Z,101056.09
2022-09-09T23:37:52.249Z,101059.59
2022-09-09T23:40:20.884Z,101058.53
2022-09-09T23:42:47.546Z,101058.75
2022-09-09T23:45:14.946Z,101054.38
2022-09-09T23:47:44.538Z,101062.19
2022-09-09T23:50:11.806Z,101044.56
2022-09-09T23:52:43.655Z,101055.63
2022-09-09T23:55:11.430Z,101047.00
2022-09-09T23:57:37.925Z,101055.72
